Time;durP1;ratioP1;P1;durP2;ratioP2;P2;SDS_P1;SDS_P2;PMS_P1;PMS_P2;Temp;Humidity;BMP_temperature;BMP_pressure;BME280_temperature;BME280_humidity;BME280_pressure;Samples;Min_cycle;Max_cycle;Signal;HPM_P1;HPM_P2
2024/03/04 00:00:49;;;;;;;39.10;18.80;;;;;;;-145.69;63.26;52222.59;5112642;28;20225;-82
2024/03/04 00:03:15;;;;;;;39.57;19.63;;;;;;;-145.69;63.88;52228.53;5112965;28;20198;-81
2024/03/04 00:05:42;;;;;;;35.10;18.00;;;;;;;-145.69;63.66;52250.31;5112567;28;20267;-82
2024/03/04 00:08:08;;;;;;;39.17;17.67;;;;;;;-145.69;63.59;52236.44;5112720;28;20201;-82
2024/03/04 00:10:35;;;;;;;38.13;18.13;;;;;;;-145.69;64.02;52248.34;5112845;28;20208;-82
2024/03/04 00:13:03;;;;;;;40.50;18.77;;;;;;;-145.69;64.09;52246.34;5112746;28;20251;-82
2024/03/04 00:15:29;;;;;;;41.93;20.13;;;;;;;-145.69;63.76;52258.22;5112755;28;20258;-82
2024/03/04 00:17:56;;;;;;;40.17;19.90;;;;;;;-145.69;63.73;52228.53;5112720;28;20486;-82
2024/03/04 00:20:22;;;;;;;38.23;18.27;;;;;;;-145.69;64.16;52260.22;5112617;28;20202;-82
2024/03/04 00:22:49;;;;;;;33.07;17.07;;;;;;;-145.69;63.89;52246.34;5112501;28;20224;-82
2024/03/04 00:25:16;;;;;;;35.07;17.20;;;;;;;-145.69;64.20;52266.16;5115590;28;20194;-81
2024/03/04 00:27:42;;;;;;;33.73;17.10;;;;;;;-145.69;64.25;52234.47;5116725;28;20226;-82
2024/03/04 00:30:12;;;;;;;35.13;17.60;;;;;;;-145.69;64.47;52258.22;5116353;27;20671;-82
2024/03/04 00:32:38;;;;;;;33.77;17.63;;;;;;;-145.69;64.74;52246.34;5116471;28;20247;-82
2024/03/04 00:35:08;;;;;;;35.30;16.43;;;;;;;-145.69;64.38;52230.50;5116330;28;20831;-81
2024/03/04 00:37:35;;;;;;;34.03;16.67;;;;;;;-145.69;64.50;52262.19;5115990;28;20280;-80
2024/03/04 00:40:05;;;;;;;35.57;15.53;;;;;;;-145.69;64.41;52254.28;5116364;28;20201;-81
2024/03/04 00:42:32;;;;;;;30.67;15.43;;;;;;;-145.69;64.53;52250.31;5116309;28;20229;-82
2024/03/04 00:44:58;;;;;;;31.07;15.47;;;;;;;-145.69;63.90;52256.25;5114537;28;20655;-82
2024/03/04 00:47:27;;;;;;;28.97;15.13;;;;;;;-145.69;63.96;52256.25;5116124;27;20197;-82
2024/03/04 00:49:53;;;;;;;30.80;14.10;;;;;;;-145.69;64.18;52250.31;5116111;28;20266;-81
2024/03/04 00:52:20;;;;;;;32.30;14.83;;;;;;;-145.69;63.96;52250.31;5115705;28;20732;-81
2024/03/04 00:54:47;;;;;;;26.30;13.93;;;;;;;-145.69;63.99;52246.34;5116011;28;20217;-82
2024/03/04 00:57:13;;;;;;;30.60;14.37;;;;;;;-145.69;64.10;52282.00;5116151;28;20202;-81
2024/03/04 00:59:40;;;;;;;25.00;14.20;;;;;;;-145.69;64.06;52240.41;5115887;28;20194;-82
2024/03/04 01:02:06;;;;;;;28.00;14.63;;;;;;;-145.69;64.51;52266.16;5115523;28;20279;-81
2024/03/04 01:04:34;;;;;;;25.03;13.20;;;;;;;-145.69;64.44;52278.03;5115543;28;20215;-81
2024/03/04 01:07:01;;;;;;;26.80;14.40;;;;;;;-145.69;64.12;52258.22;5115321;28;20587;-81
2024/03/04 01:09:27;;;;;;;27.93;14.23;;;;;;;-145.69;63.89;52250.31;5115157;28;20193;-80
2024/03/04 01:11:54;;;;;;;25.03;13.80;;;;;;;-145.69;64.24;52230.50;5114915;28;20201;-80
2024/03/04 01:14:20;;;;;;;29.77;14.30;;;;;;;-145.69;64.29;52270.13;5114979;28;20193;-81
2024/03/04 01:16:49;;;;;;;28.93;13.60;;;;;;;-145.69;64.54;52246.34;5115075;28;20219;-80
2024/03/04 01:19:15;;;;;;;27.17;14.07;;;;;;;-145.69;64.37;52226.53;5115170;28;20286;-80
2024/03/04 01:21:43;;;;;;;27.37;13.83;;;;;;;-145.69;64.71;52256.25;5115126;28;20560;-80
2024/03/04 01:24:10;;;;;;;29.50;15.00;;;;;;;-145.69;63.65;52262.19;5115591;28;20193;-81
2024/03/04 01:26:39;;;;;;;29.37;15.00;;;;;;;-145.69;63.19;52234.47;5115265;28;20232;-81
2024/03/04 01:29:08;;;;;;;25.47;14.57;;;;;;;-145.69;63.93;52260.22;5115249;28;20251;-81
2024/03/04 01:31:34;;;;;;;30.07;14.77;;;;;;;-145.69;63.98;52252.28;5115314;28;20243;-81
2024/03/04 01:34:02;;;;;;;26.20;14.53;;;;;;;-145.69;64.24;52262.19;5115406;28;20197;-81
2024/03/04 01:36:29;;;;;;;29.87;15.13;;;;;;;-145.69;64.18;52278.03;5115305;28;20201;-81
2024/03/04 01:39:02;;;;;;;28.80;15.77;;;;;;;-145.69;64.03;52212.69;5115035;28;20186;-81
2024/03/04 01:41:31;;;;;;;31.67;15.50;;;;;;;-145.69;64.07;52234.47;5115204;27;20205;-80
2024/03/04 01:44:00;;;;;;;27.30;15.30;;;;;;;-145.69;63.89;52246.34;5114858;28;20678;-81
2024/03/04 01:46:29;;;;;;;31.10;14.97;;;;;;;-145.69;64.12;52274.06;5114655;28;20197;-81
2024/03/04 01:48:56;;;;;;;31.07;15.77;;;;;;;-145.69;64.33;52268.13;5114439;28;20209;-81
2024/03/04 01:51:23;;;;;;;30.30;15.70;;;;;;;-145.69;64.17;52248.34;5114825;28;20236;-81
2024/03/04 01:53:52;;;;;;;30.70;16.17;;;;;;;-145.69;63.98;52252.28;5115011;28;20197;-81
2024/03/04 01:56:22;;;;;;;30.97;16.00;;;;;;;-145.69;63.82;52250.31;5114739;28;20201;-81
2024/03/04 01:58:49;;;;;;;30.17;15.40;;;;;;;-145.69;63.76;52234.47;5114378;28;20229;-81
2024/03/04 02:01:19;;;;;;;30.13;16.37;;;;;;;-145.69;64.24;52258.22;5114765;28;20201;-81
2024/03/04 02:03:49;;;;;;;36.97;16.53;;;;;;;-145.69;63.90;52238.44;5114718;28;20200;-81
2024/03/04 02:06:16;;;;;;;37.07;17.30;;;;;;;-145.69;64.20;52254.28;5114391;28;20202;-81
2024/03/04 02:08:43;;;;;;;31.33;15.47;;;;;;;-145.69;63.82;52278.03;5094213;28;20228;-80
2024/03/04 02:11:10;;;;;;;32.10;15.77;;;;;;;-145.69;63.86;52260.22;5094156;28;20202;-81
2024/03/04 02:13:43;;;;;;;33.47;16.60;;;;;;;-145.69;64.09;52246.34;5094162;28;20229;-81
2024/03/04 02:16:14;;;;;;;30.93;16.23;;;;;;;-145.69;63.40;52274.06;5093732;28;20737;-81
2024/03/04 02:18:42;;;;;;;35.63;15.47;;;;;;;-145.69;63.78;52262.19;5110923;28;20655;-81
2024/03/04 02:21:15;;;;;;;34.40;16.30;;;;;;;-145.69;63.61;52238.44;5114389;28;20289;-82
2024/03/04 02:23:46;;;;;;;34.13;16.53;;;;;;;-145.69;63.39;52250.31;5114090;28;20260;-81
2024/03/04 02:26:12;;;;;;;35.67;15.67;;;;;;;-145.69;63.95;52250.31;5114372;28;20193;-81
2024/03/04 02:28:39;;;;;;;30.23;15.90;;;;;;;-145.69;64.06;52258.22;5113687;28;20197;-81
2024/03/04 02:31:10;;;;;;;30.27;15.50;;;;;;;-145.69;63.78;52238.44;5113673;28;20251;-81
2024/03/04 02:33:44;;;;;;;30.57;16.27;;;;;;;-145.69;63.76;52250.31;5113680;28;20233;-81
2024/03/04 02:36:11;;;;;;;36.43;16.10;;;;;;;-145.69;63.37;52258.22;5113922;28;20695;-81
2024/03/04 02:38:38;;;;;;;32.20;16.10;;;;;;;-145.69;63.71;52254.28;5113886;28;20231;-81
2024/03/04 02:41:09;;;;;;;37.80;15.60;;;;;;;-145.69;63.81;52236.44;5113802;28;20193;-82
2024/03/04 02:43:40;;;;;;;30.30;16.60;;;;;;;-145.69;63.51;52268.13;5113982;28;20221;-81
2024/03/04 02:46:06;;;;;;;33.43;15.93;;;;;;;-145.69;63.51;52266.16;5113491;28;20288;-81
2024/03/04 02:48:33;;;;;;;34.77;15.77;;;;;;;-145.69;63.42;52266.16;5113909;28;20236;-80
2024/03/04 02:51:00;;;;;;;33.23;15.67;;;;;;;-145.69;63.61;52248.34;5112958;28;20207;-81
2024/03/04 02:53:27;;;;;;;32.07;16.23;;;;;;;-145.69;64.47;52285.97;5113081;28;20229;-81
2024/03/04 02:55:53;;;;;;;35.97;19.25;;;;;;;-145.69;65.51;52242.38;5112286;28;20431;-81
2024/03/04 02:58:21;;;;;;;36.57;16.63;;;;;;;-145.69;64.44;52282.00;5113413;28;20201;-81
2024/03/04 03:00:48;;;;;;;30.97;15.83;;;;;;;-145.69;64.20;52228.53;5113683;28;20202;-81
2024/03/04 03:03:14;;;;;;;30.53;15.67;;;;;;;-145.69;64.64;52282.00;5113405;28;20248;-80
2024/03/04 03:05:41;;;;;;;31.90;15.93;;;;;;;-145.69;64.37;52297.84;5113007;28;20247;-81
2024/03/04 03:08:07;;;;;;;36.63;16.37;;;;;;;-145.69;63.92;52250.31;5113163;28;20193;-80
2024/03/04 03:10:35;;;;;;;33.87;15.60;;;;;;;-145.69;64.78;52258.22;5113176;28;20205;-81
2024/03/04 03:13:01;;;;;;;29.13;15.20;;;;;;;-145.69;64.29;52250.31;5113502;28;20201;-81
2024/03/04 03:15:30;;;;;;;28.17;14.67;;;;;;;-145.69;64.71;52260.22;5113292;28;20259;-81
2024/03/04 03:17:57;;;;;;;33.80;15.70;;;;;;;-145.69;64.67;52266.16;5113287;28;20664;-80
2024/03/04 03:20:23;;;;;;;28.47;14.87;;;;;;;-145.69;64.74;52272.09;5113050;28;20236;-81
2024/03/04 03:22:50;;;;;;;29.87;15.60;;;;;;;-145.69;64.51;52278.03;5113031;28;20225;-81
2024/03/04 03:25:16;;;;;;;30.27;15.47;;;;;;;-145.69;64.15;52256.25;5120962;27;20555;-83
2024/03/04 03:27:43;;;;;;;32.17;16.30;;;;;;;-145.69;64.24;52246.34;5133734;27;20205;-81
2024/03/04 03:30:11;;;;;;;30.50;15.40;;;;;;;-145.69;63.98;52278.03;5133662;27;20201;-81
2024/03/04 03:32:39;;;;;;;31.13;14.73;;;;;;;-145.69;64.41;52250.31;5133624;27;20246;-81
2024/03/04 03:35:07;;;;;;;33.57;15.57;;;;;;;-145.69;64.82;52256.25;5133920;27;20205;-82
2024/03/04 03:37:34;;;;;;;27.93;15.93;;;;;;;-145.69;64.69;52256.25;5132228;28;20204;-80
2024/03/04 03:40:04;;;;;;;30.93;15.80;;;;;;;-145.69;64.15;52270.13;5112840;28;20204;-80
2024/03/04 03:42:31;;;;;;;31.07;15.47;;;;;;;-145.69;64.76;52226.53;5112272;28;20695;-83
2024/03/04 03:44:58;;;;;;;35.60;16.00;;;;;;;-145.69;64.82;52289.91;5113158;28;20204;-82
2024/03/04 03:47:24;;;;;;;29.70;15.00;;;;;;;-145.69;64.69;52276.06;5112300;28;20217;-82
2024/03/04 03:49:52;;;;;;;29.83;14.77;;;;;;;-145.69;64.91;52254.28;5112997;28;20206;-82
2024/03/04 03:52:18;;;;;;;31.47;16.47;;;;;;;-145.69;64.94;52274.06;5112742;28;20229;-82
2024/03/04 03:54:46;;;;;;;30.33;15.30;;;;;;;-145.69;64.83;52274.06;5116345;28;20189;-82
2024/03/04 03:57:12;;;;;;;28.73;14.50;;;;;;;-145.69;64.89;52246.34;5133450;28;20201;-82
2024/03/04 03:59:39;;;;;;;34.70;14.73;;;;;;;-145.69;65.12;52270.13;5136031;27;20207;-82
2024/03/04 04:02:05;;;;;;;28.80;14.90;;;;;;;-145.69;65.24;52278.03;5127702;27;20555;-82
2024/03/04 04:04:32;;;;;;;32.53;15.50;;;;;;;-145.69;64.90;52276.06;5116966;28;20208;-82
2024/03/04 04:07:00;;;;;;;30.10;15.03;;;;;;;-145.69;64.97;52285.97;5116944;28;20216;-82
2024/03/04 04:09:26;;;;;;;31.13;15.40;;;;;;;-145.69;65.24;52293.88;5116499;28;20236;-82
2024/03/04 04:11:53;;;;;;;29.93;15.00;;;;;;;-145.69;65.14;52266.16;5116871;28;20203;-82
2024/03/04 04:14:19;;;;;;;31.50;15.00;;;;;;;-145.69;65.39;52266.16;5116677;28;20189;-82
2024/03/04 04:16:46;;;;;;;29.70;15.20;;;;;;;-145.69;65.48;52254.28;5116803;28;20247;-82
2024/03/04 04:19:12;;;;;;;25.97;14.40;;;;;;;-145.69;65.66;52266.16;5116836;28;20197;-82
2024/03/04 04:21:40;;;;;;;33.33;15.13;;;;;;;-145.69;65.66;52278.03;5116482;28;20582;-82
2024/03/04 04:24:08;;;;;;;30.30;14.13;;;;;;;-145.69;64.99;52262.19;5116450;28;20231;-82
2024/03/04 04:26:34;;;;;;;32.30;15.10;;;;;;;-145.69;65.28;52266.16;5133633;27;20201;-82
2024/03/04 04:29:02;;;;;;;26.73;14.27;;;;;;;-145.69;65.41;52285.97;5136581;27;20251;-81
2024/03/04 04:31:28;;;;;;;25.63;14.67;;;;;;;-145.69;65.61;52280.00;5137092;27;20207;-82
2024/03/04 04:33:55;;;;;;;27.03;14.80;;;;;;;-145.69;65.98;52274.06;5137282;27;20283;-82
2024/03/04 04:36:21;;;;;;;30.30;14.70;;;;;;;-145.69;65.61;52258.22;5136671;27;20201;-82
2024/03/04 04:38:48;;;;;;;30.17;15.27;;;;;;;-145.69;65.29;52260.22;5126126;27;20205;-83
2024/03/04 04:41:16;;;;;;;27.23;13.37;;;;;;;-145.69;65.66;52278.03;5116238;28;20205;-82
2024/03/04 04:43:42;;;;;;;28.43;13.70;;;;;;;-145.69;65.26;52280.00;5115981;28;20236;-82
2024/03/04 04:46:11;;;;;;;27.83;13.60;;;;;;;-145.69;64.95;52280.00;5116221;28;20656;-82
2024/03/04 04:48:40;;;;;;;25.77;13.13;;;;;;;-145.69;65.26;52246.34;5116115;28;20227;-82
2024/03/04 04:51:06;;;;;;;23.47;13.53;;;;;;;-145.69;65.44;52252.28;5116108;28;20696;-83
2024/03/04 04:53:33;;;;;;;25.60;13.87;;;;;;;-145.69;65.21;52270.13;5115853;28;20236;-82
2024/03/04 04:56:00;;;;;;;28.37;12.83;;;;;;;-145.69;65.66;52289.91;5115485;28;20189;-82
2024/03/04 04:58:29;;;;;;;28.27;12.37;;;;;;;-145.69;64.93;52256.25;5115966;28;20201;-82
2024/03/04 05:00:56;;;;;;;23.60;12.80;;;;;;;-145.69;65.37;52287.94;5115883;28;20246;-82
2024/03/04 05:03:23;;;;;;;23.47;11.87;;;;;;;-145.69;65.71;52256.25;5115619;28;20316;-82
2024/03/04 05:05:49;;;;;;;24.83;11.67;;;;;;;-145.69;65.12;52270.13;5115480;28;20189;-81
2024/03/04 05:08:16;;;;;;;23.27;12.10;;;;;;;-145.69;65.65;52274.06;5115571;28;20201;-82
2024/03/04 05:10:42;;;;;;;23.53;12.23;;;;;;;-145.69;65.50;52278.03;5114797;28;20213;-82
2024/03/04 05:13:09;;;;;;;23.77;12.60;;;;;;;-145.69;65.88;52303.78;5115560;28;20208;-82
2024/03/04 05:15:37;;;;;;;26.33;12.33;;;;;;;-145.69;65.42;52260.22;5115785;28;20225;-82
2024/03/04 05:18:04;;;;;;;24.97;12.20;;;;;;;-145.69;65.65;52246.34;5115540;28;20200;-81
2024/03/04 05:20:31;;;;;;;22.73;11.50;;;;;;;-145.69;65.16;52258.22;5115737;28;20216;-82
2024/03/04 05:22:57;;;;;;;26.57;12.63;;;;;;;-145.69;65.67;52278.03;5115381;28;20251;-82
2024/03/04 05:25:24;;;;;;;21.10;11.37;;;;;;;-145.69;65.73;52260.22;5115218;28;20233;-81
2024/03/04 05:27:50;;;;;;;22.27;11.43;;;;;;;-145.69;65.65;52282.00;5115552;28;20194;-82
2024/03/04 05:30:17;;;;;;;22.80;11.80;;;;;;;-145.69;65.40;52258.22;5115012;28;20223;-82
2024/03/04 05:32:45;;;;;;;25.30;12.33;;;;;;;-145.69;65.17;52250.31;5115178;28;20567;-82
2024/03/04 05:35:11;;;;;;;22.47;11.20;;;;;;;-145.69;65.66;52285.97;5114687;28;20196;-82
2024/03/04 05:37:40;;;;;;;21.97;11.13;;;;;;;-145.69;65.73;52266.16;5115117;28;20254;-82
2024/03/04 05:40:10;;;;;;;22.97;11.53;;;;;;;-145.69;66.20;52295.84;5115121;28;20197;-81
2024/03/04 05:42:39;;;;;;;21.93;11.27;;;;;;;-145.69;66.39;52280.00;5115302;28;20201;-82
2024/03/04 05:45:07;;;;;;;24.50;11.23;;;;;;;-145.69;66.01;52264.16;5115133;28;20263;-81
2024/03/04 05:47:33;;;;;;;21.17;10.83;;;;;;;-145.69;65.97;52274.06;5115182;28;20231;-81
2024/03/04 05:50:04;;;;;;;22.80;11.67;;;;;;;-145.69;65.99;52282.00;5114542;28;20717;-81
2024/03/04 05:52:30;;;;;;;24.13;11.40;;;;;;;-145.69;66.41;52230.50;5114157;28;20229;-81
2024/03/04 05:55:09;;;;;;;22.40;10.93;;;;;;;-145.69;66.30;52256.25;5114715;28;20204;-82
2024/03/04 05:57:35;;;;;;;25.50;11.23;;;;;;;-145.69;65.87;52295.84;5114880;27;20285;-80
2024/03/04 06:00:03;;;;;;;28.17;11.60;;;;;;;-145.69;66.07;52282.00;5114802;28;20281;-82
2024/03/04 06:02:32;;;;;;;24.10;12.18;;;;;;;-145.69;66.15;52276.06;5114402;28;20450;-82
2024/03/04 06:04:58;;;;;;;20.33;11.00;;;;;;;-145.69;65.86;52250.31;5114179;28;20223;-81
2024/03/04 06:07:26;;;;;;;22.83;10.80;;;;;;;-145.69;65.43;52270.13;5113818;28;20198;-81
2024/03/04 06:09:55;;;;;;;21.40;10.20;;;;;;;-145.69;65.63;52283.97;5114244;28;20193;-80
2024/03/04 06:12:24;;;;;;;22.10;11.03;;;;;;;-145.69;65.06;52254.28;5114295;28;20197;-82
2024/03/04 06:14:51;;;;;;;22.90;10.87;;;;;;;-145.69;65.16;52283.97;5114473;28;20647;-81
2024/03/04 06:17:17;;;;;;;20.70;10.17;;;;;;;-145.69;65.39;52291.91;5114149;28;20189;-80
2024/03/04 06:19:44;;;;;;;24.00;11.30;;;;;;;-145.69;65.36;52262.19;5114310;28;20205;-82
2024/03/04 06:22:12;;;;;;;20.97;10.37;;;;;;;-145.69;65.15;52321.59;5113527;28;20202;-82
2024/03/04 06:24:41;;;;;;;21.83;11.13;;;;;;;-145.69;65.43;52285.97;5113856;28;20232;-81
2024/03/04 06:27:08;;;;;;;22.80;10.40;;;;;;;-145.69;65.34;52254.28;5114198;28;20233;-82
2024/03/04 06:29:35;;;;;;;20.43;10.10;;;;;;;-145.69;65.69;52280.00;5114076;28;20200;-82
2024/03/04 06:32:02;;;;;;;20.77;10.37;;;;;;;-145.69;65.41;52254.28;5113871;28;20206;-81
2024/03/04 06:34:29;;;;;;;20.63;9.80;;;;;;;-145.69;65.07;52285.97;5114070;28;20284;-80
2024/03/04 06:36:55;;;;;;;25.33;11.00;;;;;;;-145.69;65.33;52258.22;5114005;28;20267;-82
2024/03/04 06:39:22;;;;;;;21.52;11.85;;;;;;;-145.69;66.14;52262.19;5112829;28;20984;-81
2024/03/04 06:41:50;;;;;;;21.73;11.20;;;;;;;-145.69;65.71;52266.16;5113495;28;20197;-81
2024/03/04 06:44:17;;;;;;;19.93;10.17;;;;;;;-145.69;65.29;52283.97;5113687;28;20233;-82
2024/03/04 06:46:46;;;;;;;21.30;10.70;;;;;;;-145.69;64.91;52270.13;5114015;28;20205;-81
2024/03/04 06:49:13;;;;;;;17.97;9.53;;;;;;;-145.69;64.44;52266.16;5113720;28;20209;-81
2024/03/04 06:51:39;;;;;;;21.02;11.93;;;;;;;-145.69;65.97;52291.91;5112052;28;20430;-81
2024/03/04 06:54:07;;;;;;;22.70;10.63;;;;;;;-145.69;65.16;52282.00;5113931;27;20289;-82
2024/03/04 06:56:34;;;;;;;23.67;11.03;;;;;;;-145.69;65.08;52280.00;5113692;28;20202;-82
2024/03/04 06:59:02;;;;;;;19.47;9.97;;;;;;;-145.69;64.46;52283.97;5113515;28;20200;-81
2024/03/04 07:01:29;;;;;;;21.03;10.43;;;;;;;-145.69;64.54;52254.28;5113329;28;20204;-82
2024/03/04 07:03:56;;;;;;;18.93;9.63;;;;;;;-145.69;64.44;52270.13;5113508;28;20225;-82
2024/03/04 07:06:22;;;;;;;21.03;9.63;;;;;;;-145.69;64.24;52297.84;5113157;28;20185;-81
2024/03/04 07:08:49;;;;;;;21.50;10.07;;;;;;;-145.69;64.31;52270.13;5112667;28;20200;-82
2024/03/04 07:11:16;;;;;;;19.77;9.63;;;;;;;-145.69;63.81;52282.00;5112755;28;20194;-82
2024/03/04 07:13:43;;;;;;;18.30;9.60;;;;;;;-145.69;63.51;52278.03;5113424;28;20197;-82
2024/03/04 07:16:14;;;;;;;22.97;10.10;;;;;;;-145.69;63.59;52291.91;5112943;28;20671;-81
2024/03/04 07:18:41;;;;;;;16.37;8.60;;;;;;;-145.69;63.68;52278.03;5112660;28;20227;-81
2024/03/04 07:21:07;;;;;;;19.60;9.37;;;;;;;-145.69;63.26;52283.97;5112956;28;20246;-82
2024/03/04 07:23:34;;;;;;;18.03;8.93;;;;;;;-145.69;63.53;52282.00;5112836;28;20641;-81
2024/03/04 07:26:06;;;;;;;16.00;9.27;;;;;;;-145.69;63.21;52274.06;5113272;28;20194;-81
2024/03/04 07:28:33;;;;;;;20.60;10.00;;;;;;;-145.69;63.34;52317.66;5113358;28;20658;-81
2024/03/04 07:31:00;;;;;;;16.57;8.93;;;;;;;-145.69;62.76;52278.03;5113154;28;20197;-81
2024/03/04 07:33:27;;;;;;;19.57;9.27;;;;;;;-145.69;63.14;52272.09;5112999;28;20289;-81
2024/03/04 07:35:54;;;;;;;18.43;9.37;;;;;;;-145.69;62.66;52305.75;5121388;27;20194;-81
2024/03/04 07:38:21;;;;;;;17.70;8.07;;;;;;;-145.69;63.09;52270.13;5112885;28;20707;-81
2024/03/04 07:40:47;;;;;;;18.57;8.77;;;;;;;-145.69;62.12;52270.13;5112902;28;20258;-81
2024/03/04 07:43:14;;;;;;;17.47;8.73;;;;;;;-145.69;62.40;52297.84;5113242;28;20201;-81
2024/03/04 07:45:40;;;;;;;15.60;8.33;;;;;;;-145.69;62.64;52285.97;5112874;28;20208;-82
2024/03/04 07:48:07;;;;;;;19.17;9.37;;;;;;;-145.69;62.88;52252.28;5115905;28;20197;-81
2024/03/04 07:50:35;;;;;;;18.27;8.63;;;;;;;-145.69;62.34;52276.06;5112661;28;20197;-81
2024/03/04 07:53:02;;;;;;;19.67;9.07;;;;;;;-145.69;62.06;52289.91;5112735;28;20684;-81
2024/03/04 07:55:29;;;;;;;16.37;8.57;;;;;;;-145.69;62.35;52268.13;5111463;28;20779;-81
2024/03/04 07:57:55;;;;;;;16.20;8.27;;;;;;;-145.69;61.89;52282.00;5112577;28;20205;-81
2024/03/04 08:00:22;;;;;;;18.93;8.80;;;;;;;-145.69;61.59;52299.81;5112403;28;20544;-81
2024/03/04 08:02:49;;;;;;;17.00;9.03;;;;;;;-145.69;61.67;52262.19;5112932;28;20193;-81
2024/03/04 08:05:15;;;;;;;15.20;7.53;;;;;;;-145.69;61.77;52254.28;5112219;28;20267;-80
2024/03/04 08:07:43;;;;;;;14.73;7.77;;;;;;;-145.69;62.12;52266.16;5112813;28;20193;-82
2024/03/04 08:10:11;;;;;;;18.00;8.57;;;;;;;-145.69;61.79;52278.03;5112670;28;20201;-82
2024/03/04 08:12:37;;;;;;;16.60;8.10;;;;;;;-145.69;62.08;52297.84;5111892;28;20273;-81
2024/03/04 08:15:05;;;;;;;17.47;8.37;;;;;;;-145.69;61.96;52262.19;5112736;28;20202;-81
2024/03/04 08:17:33;;;;;;;15.30;8.43;;;;;;;-145.69;62.24;52272.09;5112664;28;20193;-81
2024/03/04 08:20:00;;;;;;;20.03;9.27;;;;;;;-145.69;61.81;52262.19;5112441;28;20723;-81
2024/03/04 08:22:26;;;;;;;19.13;8.07;;;;;;;-145.69;61.93;52260.22;5112567;28;20216;-82
2024/03/04 08:24:54;;;;;;;15.87;8.20;;;;;;;-145.69;61.40;52266.16;5112390;28;20251;-81
2024/03/04 08:27:21;;;;;;;17.57;8.80;;;;;;;-145.69;61.64;52278.03;5112775;28;20197;-81
2024/03/04 08:29:48;;;;;;;15.90;7.80;;;;;;;-145.69;61.48;52262.19;5112150;28;20212;-82
2024/03/04 08:32:14;;;;;;;15.63;8.23;;;;;;;-145.69;60.99;52264.16;5112067;28;20293;-81
2024/03/04 08:34:47;;;;;;;15.30;7.53;;;;;;;-145.69;61.09;52260.22;5112262;28;20568;-82
2024/03/04 08:37:13;;;;;;;17.97;7.77;;;;;;;-145.69;60.50;52252.28;5112688;28;20667;-81
2024/03/04 08:39:40;;;;;;;15.73;7.93;;;;;;;-145.69;60.92;52248.34;5112610;28;20228;-81
2024/03/04 08:42:08;;;;;;;13.40;7.27;;;;;;;-145.69;61.24;52260.22;5112450;28;20686;-82
2024/03/04 08:44:34;;;;;;;16.27;8.20;;;;;;;-145.69;60.55;52276.06;5113236;28;20225;-81
2024/03/04 08:47:01;;;;;;;16.10;8.43;;;;;;;-145.69;60.23;52260.22;5116243;28;20208;-82
2024/03/04 08:49:27;;;;;;;13.87;7.73;;;;;;;-145.69;60.21;52266.16;5115276;27;20209;-81
2024/03/04 08:51:56;;;;;;;17.10;8.57;;;;;;;-145.69;60.48;52236.44;5115971;28;20257;-81
2024/03/04 08:54:22;;;;;;;15.33;8.40;;;;;;;-145.69;60.09;52295.84;5115981;28;20194;-81
2024/03/04 08:56:49;;;;;;;16.47;8.60;;;;;;;-145.69;60.26;52274.06;5115907;28;20209;-82
2024/03/04 08:59:17;;;;;;;15.57;7.77;;;;;;;-145.69;60.28;52242.38;5116220;28;20274;-83
2024/03/04 09:01:44;;;;;;;16.77;8.47;;;;;;;-145.69;60.19;52258.22;5116064;28;20208;-82
2024/03/04 09:04:11;;;;;;;14.97;7.90;;;;;;;-145.69;59.71;52240.41;5115840;28;20270;-82
2024/03/04 09:06:37;;;;;;;19.00;8.43;;;;;;;-145.69;59.51;52260.22;5115641;28;20254;-82
2024/03/04 09:09:04;;;;;;;16.37;8.23;;;;;;;-145.69;59.91;52274.06;5115570;28;20257;-81
2024/03/04 09:11:32;;;;;;;14.30;8.10;;;;;;;-145.69;59.76;52238.44;5116028;27;20605;-82
2024/03/04 09:13:59;;;;;;;17.17;8.37;;;;;;;-145.69;59.97;52238.44;5115875;28;20325;-82
2024/03/04 09:16:27;;;;;;;15.83;8.00;;;;;;;-145.69;59.86;52210.72;5115749;28;20201;-81
2024/03/04 09:18:54;;;;;;;21.80;9.83;;;;;;;-145.69;59.31;52226.53;5119933;27;20204;-81
2024/03/04 09:21:24;;;;;;;18.33;9.43;;;;;;;-145.69;59.31;52242.38;5115607;28;20258;-81
2024/03/04 09:23:51;;;;;;;18.67;8.33;;;;;;;-145.69;58.23;52262.19;5114855;28;20246;-82
2024/03/04 09:26:17;;;;;;;16.00;8.23;;;;;;;-145.69;58.53;52252.28;5115122;28;20202;-81
2024/03/04 09:28:53;;;;;;;16.83;8.10;;;;;;;-145.69;58.58;52262.19;5115063;28;20197;-82
2024/03/04 09:31:22;;;;;;;17.60;8.43;;;;;;;-145.69;58.31;52230.50;5115240;28;20197;-79
2024/03/04 09:33:52;;;;;;;19.17;8.43;;;;;;;-145.69;59.45;52238.44;5115066;28;20198;-80
2024/03/04 09:36:18;;;;;;;17.27;8.13;;;;;;;-145.69;59.49;52262.19;5115000;28;20193;-81
2024/03/04 09:38:45;;;;;;;17.83;8.53;;;;;;;-145.69;59.64;52266.16;5114897;28;20243;-80
2024/03/04 09:41:18;;;;;;;21.67;9.17;;;;;;;-145.69;59.11;52260.22;5114961;28;20198;-78
2024/03/04 09:43:45;;;;;;;15.67;8.63;;;;;;;-145.69;59.50;52242.38;5110552;28;20206;-79
2024/03/04 09:46:13;;;;;;;14.47;8.03;;;;;;;-145.69;59.29;52260.22;5114075;28;20679;-82
2024/03/04 09:48:40;;;;;;;15.13;7.87;;;;;;;-145.69;59.40;52254.28;5114575;28;20200;-84
2024/03/04 09:51:12;;;;;;;14.73;7.33;;;;;;;-145.69;59.20;52276.06;5114808;28;20243;-82
2024/03/04 09:53:40;;;;;;;14.37;7.47;;;;;;;-145.69;58.53;52274.06;5114601;28;20211;-82
2024/03/04 09:56:07;;;;;;;18.03;7.80;;;;;;;-145.69;58.82;52280.00;5113634;27;20233;-80
2024/03/04 09:58:36;;;;;;;17.67;7.63;;;;;;;-145.69;58.78;52222.59;5114296;28;20241;-81
2024/03/04 10:01:04;;;;;;;14.80;7.60;;;;;;;-145.69;58.48;52226.53;5113718;28;20202;-80
2024/03/04 10:03:30;;;;;;;14.87;7.73;;;;;;;-145.69;58.68;52262.19;5114785;27;20251;-79
2024/03/04 10:05:57;;;;;;;16.73;8.20;;;;;;;-145.69;59.16;52258.22;5114203;28;20221;-80
2024/03/04 10:08:26;;;;;;;19.80;8.23;;;;;;;-145.69;59.18;52250.31;5114461;28;20197;-81
2024/03/04 10:10:53;;;;;;;14.33;7.90;;;;;;;-145.69;59.82;52274.06;5114403;28;20193;-81
2024/03/04 10:13:20;;;;;;;16.10;8.23;;;;;;;-145.69;59.99;52260.22;5114388;28;20333;-81
2024/03/04 10:15:47;;;;;;;14.57;7.47;;;;;;;-145.69;59.74;52252.28;5114338;28;20260;-81
2024/03/04 10:18:16;;;;;;;16.03;7.97;;;;;;;-145.69;59.51;52230.50;5117753;27;20203;-80
2024/03/04 10:20:43;;;;;;;14.87;7.93;;;;;;;-145.69;60.06;52254.28;5093506;28;20229;-80
2024/03/04 10:23:10;;;;;;;15.97;8.43;;;;;;;-145.69;60.96;52262.19;5093702;28;20237;-80
2024/03/04 10:25:43;;;;;;;15.90;7.87;;;;;;;-145.69;60.42;52258.22;5093651;28;20228;-80
2024/03/04 10:28:12;;;;;;;17.27;8.73;;;;;;;-145.69;60.07;52202.78;5093603;28;20615;-81
2024/03/04 10:30:43;;;;;;;17.27;7.80;;;;;;;-145.69;60.32;52268.13;5094047;28;20285;-81
2024/03/04 10:33:13;;;;;;;14.90;7.33;;;;;;;-145.69;60.26;52242.38;5093735;28;20656;-81
2024/03/04 10:35:40;;;;;;;17.17;7.57;;;;;;;-145.69;59.42;52232.50;5093010;28;20229;-83
2024/03/04 10:38:13;;;;;;;14.73;8.03;;;;;;;-145.69;58.75;52232.50;5093411;28;20197;-84
2024/03/04 10:40:44;;;;;;;13.63;7.50;;;;;;;-145.69;58.65;52250.31;5107791;28;20238;-81
2024/03/04 10:43:15;;;;;;;14.67;7.33;;;;;;;-145.69;58.21;52254.28;5113833;28;20648;-82
2024/03/04 10:45:42;;;;;;;11.97;6.07;;;;;;;-145.69;58.88;52256.25;5113383;28;20225;-82
2024/03/04 10:48:08;;;;;;;12.60;5.57;;;;;;;-145.69;59.00;52228.53;5113617;28;20197;-81
2024/03/04 10:50:39;;;;;;;9.87;5.80;;;;;;;-145.69;59.18;52248.34;5113972;28;20201;-80
2024/03/04 10:53:06;;;;;;;11.27;6.03;;;;;;;-145.69;59.16;52258.22;5113611;28;20232;-82
2024/03/04 10:55:41;;;;;;;15.07;8.03;;;;;;;-145.69;59.40;52250.31;5113586;28;20197;-80
2024/03/04 10:58:09;;;;;;;14.73;7.87;;;;;;;-145.69;60.71;52238.44;5113379;28;20622;-80
2024/03/04 11:00:39;;;;;;;13.47;7.90;;;;;;;-145.69;61.07;52214.66;5113670;28;20193;-80
2024/03/04 11:03:15;;;;;;;16.07;7.53;;;;;;;-145.69;61.58;52246.34;5113226;28;20193;-80
2024/03/04 11:05:50;;;;;;;14.13;7.43;;;;;;;-145.69;61.90;52234.47;5110666;28;20593;-80